sensor_id;sensor_type;location;lat;lon;timestamp;pressure;altitude;pressure_sealevel;temperature;humidity
68889;BME280;55930;47.412;8.790;2023-04-21T00:00:43;94122.78;;;1.45;100.00
68889;BME280;55930;47.412;8.790;2023-04-21T00:04:04;94124.19;;;1.33;100.00
68889;BME280;55930;47.412;8.790;2023-04-21T00:07:27;94113.06;;;1.45;100.00
68889;BME280;55930;47.412;8.790;2023-04-21T00:10:50;94113.78;;;1.46;100.00
68889;BME280;55930;47.412;8.790;2023-04-21T00:14:10;94118.84;;;1.37;100.00
68889;BME280;55930;47.412;8.790;2023-04-21T00:17:30;94106.88;;;1.39;100.00
68889;BME280;55930;47.412;8.790;2023-04-21T00:20:51;94110.56;;;1.26;100.00
68889;BME280;55930;47.412;8.790;2023-04-21T00:24:11;94102.31;;;1.27;100.00
68889;BME280;55930;47.412;8.790;2023-04-21T00:27:32;94104.81;;;1.31;100.00
68889;BME280;55930;47.412;8.790;2023-04-21T00:30:52;94097.94;;;1.37;100.00
68889;BME280;55930;47.412;8.790;2023-04-21T00:34:13;94091.25;;;1.36;100.00
68889;BME280;55930;47.412;8.790;2023-04-21T00:37:35;94086.88;;;1.33;100.00
68889;BME280;55930;47.412;8.790;2023-04-21T00:40:56;94084.75;;;1.28;100.00
68889;BME280;55930;47.412;8.790;2023-04-21T00:44:16;94072.34;;;1.32;100.00
68889;BME280;55930;47.412;8.790;2023-04-21T00:47:37;94072.19;;;1.23;100.00
68889;BME280;55930;47.412;8.790;2023-04-21T00:50:57;94080.59;;;1.14;100.00
68889;BME280;55930;47.412;8.790;2023-04-21T00:54:18;94074.22;;;1.15;100.00
68889;BME280;55930;47.412;8.790;2023-04-21T00:57:39;94080.50;;;1.18;100.00
68889;BME280;55930;47.412;8.790;2023-04-21T01:00:59;94085.00;;;1.17;100.00
68889;BME280;55930;47.412;8.790;2023-04-21T01:04:20;94087.84;;;1.23;100.00
68889;BME280;55930;47.412;8.790;2023-04-21T01:07:41;94092.75;;;1.21;100.00
68889;BME280;55930;47.412;8.790;2023-04-21T01:11:08;94087.13;;;1.22;100.00
68889;BME280;55930;47.412;8.790;2023-04-21T01:14:30;94096.25;;;1.14;100.00
68889;BME280;55930;47.412;8.790;2023-04-21T01:17:50;94101.81;;;1.00;100.00
68889;BME280;55930;47.412;8.790;2023-04-21T01:21:14;94108.00;;;1.22;100.00
68889;BME280;55930;47.412;8.790;2023-04-21T01:24:40;94099.13;;;1.20;100.00
68889;BME280;55930;47.412;8.790;2023-04-21T01:28:01;94105.31;;;1.42;100.00
68889;BME280;55930;47.412;8.790;2023-04-21T01:31:22;94103.00;;;1.44;100.00
68889;BME280;55930;47.412;8.790;2023-04-21T01:34:43;94093.41;;;1.41;100.00
68889;BME280;55930;47.412;8.790;2023-04-21T01:38:04;94087.09;;;1.38;100.00
68889;BME280;55930;47.412;8.790;2023-04-21T01:41:24;94091.28;;;1.20;100.00
68889;BME280;55930;47.412;8.790;2023-04-21T01:44:45;94085.75;;;1.18;100.00
68889;BME280;55930;47.412;8.790;2023-04-21T01:48:06;94095.28;;;1.24;100.00
68889;BME280;55930;47.412;8.790;2023-04-21T01:51:26;94084.88;;;1.37;100.00
68889;BME280;55930;47.412;8.790;2023-04-21T01:54:47;94083.69;;;1.41;100.00
68889;BME280;55930;47.412;8.790;2023-04-21T01:58:07;94091.75;;;1.47;100.00
68889;BME280;55930;47.412;8.790;2023-04-21T02:01:27;94085.19;;;1.55;100.00
68889;BME280;55930;47.412;8.790;2023-04-21T02:04:48;94095.16;;;1.60;100.00
68889;BME280;55930;47.412;8.790;2023-04-21T02:08:08;94091.81;;;1.60;100.00
68889;BME280;55930;47.412;8.790;2023-04-21T02:11:31;94081.19;;;1.67;100.00
68889;BME280;55930;47.412;8.790;2023-04-21T02:14:51;94077.53;;;1.77;100.00
68889;BME280;55930;47.412;8.790;2023-04-21T02:18:12;94092.41;;;1.80;100.00
68889;BME280;55930;47.412;8.790;2023-04-21T02:21:36;94087.25;;;1.76;100.00
68889;BME280;55930;47.412;8.790;2023-04-21T02:24:56;94084.03;;;1.72;100.00
68889;BME280;55930;47.412;8.790;2023-04-21T02:28:16;94095.06;;;1.64;100.00
68889;BME280;55930;47.412;8.790;2023-04-21T02:31:39;94102.13;;;1.79;100.00
68889;BME280;55930;47.412;8.790;2023-04-21T02:35:00;94099.59;;;1.76;100.00
68889;BME280;55930;47.412;8.790;2023-04-21T02:38:21;94095.69;;;1.68;100.00
68889;BME280;55930;47.412;8.790;2023-04-21T02:41:41;94095.41;;;1.66;100.00
68889;BME280;55930;47.412;8.790;2023-04-21T02:45:01;94085.91;;;1.72;100.00
68889;BME280;55930;47.412;8.790;2023-04-21T02:48:22;94074.94;;;1.77;100.00
68889;BME280;55930;47.412;8.790;2023-04-21T02:51:42;94086.66;;;1.85;100.00
68889;BME280;55930;47.412;8.790;2023-04-21T02:55:03;94080.75;;;1.68;100.00
68889;BME280;55930;47.412;8.790;2023-04-21T02:58:23;94077.88;;;1.79;100.00
68889;BME280;55930;47.412;8.790;2023-04-21T03:01:44;94089.47;;;1.78;100.00
68889;BME280;55930;47.412;8.790;2023-04-21T03:05:05;94091.09;;;1.88;100.00
68889;BME280;55930;47.412;8.790;2023-04-21T03:08:25;94081.78;;;1.87;100.00
68889;BME280;55930;47.412;8.790;2023-04-21T03:11:46;94078.97;;;1.94;100.00
68889;BME280;55930;47.412;8.790;2023-04-21T03:15:06;94072.59;;;1.95;100.00
68889;BME280;55930;47.412;8.790;2023-04-21T03:18:27;94048.09;;;1.89;100.00
68889;BME280;55930;47.412;8.790;2023-04-21T03:21:47;94043.75;;;2.11;100.00
68889;BME280;55930;47.412;8.790;2023-04-21T03:25:10;94051.84;;;2.29;100.00
68889;BME280;55930;47.412;8.790;2023-04-21T03:28:31;94078.03;;;2.42;100.00
68889;BME280;55930;47.412;8.790;2023-04-21T03:31:51;94071.13;;;2.48;100.00
68889;BME280;55930;47.412;8.790;2023-04-21T03:35:11;94067.56;;;2.42;100.00
68889;BME280;55930;47.412;8.790;2023-04-21T03:38:32;94078.22;;;1.93;100.00
68889;BME280;55930;47.412;8.790;2023-04-21T03:41:52;94074.81;;;2.09;100.00
68889;BME280;55930;47.412;8.790;2023-04-21T03:45:13;94050.25;;;2.19;100.00
68889;BME280;55930;47.412;8.790;2023-04-21T03:48:33;94037.19;;;2.32;100.00
68889;BME280;55930;47.412;8.790;2023-04-21T03:51:56;94025.06;;;2.38;100.00
68889;BME280;55930;47.412;8.790;2023-04-21T03:55:16;94033.41;;;2.20;100.00
68889;BME280;55930;47.412;8.790;2023-04-21T03:58:37;94041.34;;;2.17;100.00
68889;BME280;55930;47.412;8.790;2023-04-21T04:01:57;94053.16;;;2.09;100.00
68889;BME280;55930;47.412;8.790;2023-04-21T04:05:18;94050.25;;;2.07;100.00
68889;BME280;55930;47.412;8.790;2023-04-21T04:08:39;94042.06;;;2.05;100.00
68889;BME280;55930;47.412;8.790;2023-04-21T04:12:01;94030.34;;;2.09;100.00
68889;BME280;55930;47.412;8.790;2023-04-21T04:15:22;94029.53;;;2.12;100.00
68889;BME280;55930;47.412;8.790;2023-04-21T04:18:42;94022.22;;;2.07;100.00
68889;BME280;55930;47.412;8.790;2023-04-21T04:22:04;94030.41;;;1.80;100.00
68889;BME280;55930;47.412;8.790;2023-04-21T04:25:25;94046.91;;;1.77;100.00
68889;BME280;55930;47.412;8.790;2023-04-21T04:28:46;94064.22;;;2.00;100.00
68889;BME280;55930;47.412;8.790;2023-04-21T04:32:08;94057.44;;;2.03;100.00
68889;BME280;55930;47.412;8.790;2023-04-21T04:35:30;94048.53;;;2.00;100.00
68889;BME280;55930;47.412;8.790;2023-04-21T04:38:50;94047.78;;;2.00;100.00
68889;BME280;55930;47.412;8.790;2023-04-21T04:42:10;94042.06;;;2.05;100.00
68889;BME280;55930;47.412;8.790;2023-04-21T04:45:31;94050.31;;;2.03;100.00
68889;BME280;55930;47.412;8.790;2023-04-21T04:48:52;94056.09;;;2.11;100.00
68889;BME280;55930;47.412;8.790;2023-04-21T04:52:12;94055.69;;;2.25;100.00
68889;BME280;55930;47.412;8.790;2023-04-21T04:55:33;94069.53;;;2.25;100.00
68889;BME280;55930;47.412;8.790;2023-04-21T04:58:53;94072.38;;;2.31;100.00
68889;BME280;55930;47.412;8.790;2023-04-21T05:02:13;94072.78;;;2.29;100.00
68889;BME280;55930;47.412;8.790;2023-04-21T05:05:34;94064.00;;;2.36;100.00
68889;BME280;55930;47.412;8.790;2023-04-21T05:08:57;94070.50;;;2.44;100.00
68889;BME280;55930;47.412;8.790;2023-04-21T05:12:17;94058.88;;;2.45;100.00
68889;BME280;55930;47.412;8.790;2023-04-21T05:15:38;94067.75;;;2.48;100.00
68889;BME280;55930;47.412;8.790;2023-04-21T05:19:00;94075.31;;;2.58;100.00
68889;BME280;55930;47.412;8.790;2023-04-21T05:22:21;94090.50;;;2.51;100.00
68889;BME280;55930;47.412;8.790;2023-04-21T05:25:41;94089.06;;;2.62;100.00
68889;BME280;55930;47.412;8.790;2023-04-21T05:29:01;94093.22;;;2.47;100.00
68889;BME280;55930;47.412;8.790;2023-04-21T05:32:22;94093.22;;;2.60;100.00
68889;BME280;55930;47.412;8.790;2023-04-21T05:35:44;94086.41;;;2.88;100.00
68889;BME280;55930;47.412;8.790;2023-04-21T05:39:08;94104.25;;;2.93;100.00
68889;BME280;55930;47.412;8.790;2023-04-21T05:42:28;94107.47;;;2.72;100.00
68889;BME280;55930;47.412;8.790;2023-04-21T05:45:48;94107.28;;;2.91;100.00
68889;BME280;55930;47.412;8.790;2023-04-21T05:49:11;94102.75;;;3.17;100.00
68889;BME280;55930;47.412;8.790;2023-04-21T05:52:32;94102.63;;;3.33;100.00
68889;BME280;55930;47.412;8.790;2023-04-21T05:55:54;94095.28;;;3.41;100.00
68889;BME280;55930;47.412;8.790;2023-04-21T05:59:14;94091.25;;;3.83;100.00
68889;BME280;55930;47.412;8.790;2023-04-21T06:02:35;94094.91;;;3.86;100.00
68889;BME280;55930;47.412;8.790;2023-04-21T06:05:55;94092.75;;;3.50;100.00
68889;BME280;55930;47.412;8.790;2023-04-21T06:09:16;94091.31;;;3.93;100.00
68889;BME280;55930;47.412;8.790;2023-04-21T06:12:36;94090.97;;;4.03;100.00
68889;BME280;55930;47.412;8.790;2023-04-21T06:15:57;94086.06;;;3.93;100.00
68889;BME280;55930;47.412;8.790;2023-04-21T06:19:17;94095.69;;;4.30;100.00
68889;BME280;55930;47.412;8.790;2023-04-21T06:22:37;94098.75;;;4.59;100.00
68889;BME280;55930;47.412;8.790;2023-04-21T06:26:05;94087.28;;;5.15;100.00
68889;BME280;55930;47.412;8.790;2023-04-21T06:29:26;94090.41;;;5.32;100.00
68889;BME280;55930;47.412;8.790;2023-04-21T06:32:46;94076.53;;;5.50;100.00
68889;BME280;55930;47.412;8.790;2023-04-21T06:36:07;94085.72;;;5.45;100.00
68889;BME280;55930;47.412;8.790;2023-04-21T06:39:28;94087.78;;;5.41;100.00
68889;BME280;55930;47.412;8.790;2023-04-21T06:42:48;94084.25;;;5.26;100.00
68889;BME280;55930;47.412;8.790;2023-04-21T06:46:08;94085.53;;;5.21;100.00
68889;BME280;55930;47.412;8.790;2023-04-21T06:49:29;94081.50;;;5.38;100.00
68889;BME280;55930;47.412;8.790;2023-04-21T06:52:52;94078.31;;;5.71;100.00
68889;BME280;55930;47.412;8.790;2023-04-21T06:56:13;94072.72;;;5.42;100.00
68889;BME280;55930;47.412;8.790;2023-04-21T06:59:33;94070.28;;;6.02;100.00
68889;BME280;55930;47.412;8.790;2023-04-21T07:02:53;94071.44;;;5.55;100.00
68889;BME280;55930;47.412;8.790;2023-04-21T07:06:14;94073.81;;;5.90;100.00
68889;BME280;55930;47.412;8.790;2023-04-21T07:09:34;94078.00;;;5.51;100.00
68889;BME280;55930;47.412;8.790;2023-04-21T07:12:55;94083.53;;;5.44;100.00
68889;BME280;55930;47.412;8.790;2023-04-21T07:16:16;94077.25;;;6.41;100.00
68889;BME280;55930;47.412;8.790;2023-04-21T07:19:37;94063.91;;;6.87;100.00
68889;BME280;55930;47.412;8.790;2023-04-21T07:22:58;94062.19;;;7.64;100.00
68889;BME280;55930;47.412;8.790;2023-04-21T07:26:19;94071.56;;;6.85;100.00
68889;BME280;55930;47.412;8.790;2023-04-21T07:29:39;94080.91;;;6.53;100.00
68889;BME280;55930;47.412;8.790;2023-04-21T07:33:02;94076.41;;;5.99;100.00
68889;BME280;55930;47.412;8.790;2023-04-21T07:36:22;94071.97;;;6.50;100.00
68889;BME280;55930;47.412;8.790;2023-04-21T07:39:43;94075.41;;;6.14;100.00
68889;BME280;55930;47.412;8.790;2023-04-21T07:43:04;94080.81;;;6.71;100.00
68889;BME280;55930;47.412;8.790;2023-04-21T07:46:24;94075.22;;;6.36;100.00
68889;BME280;55930;47.412;8.790;2023-04-21T07:49:49;94074.16;;;6.94;100.00
68889;BME280;55930;47.412;8.790;2023-04-21T07:53:09;94075.72;;;7.57;100.00
68889;BME280;55930;47.412;8.790;2023-04-21T07:56:30;94070.59;;;7.54;100.00
68889;BME280;55930;47.412;8.790;2023-04-21T07:59:50;94062.34;;;7.37;100.00
68889;BME280;55930;47.412;8.790;2023-04-21T08:03:11;94063.19;;;7.67;100.00
68889;BME280;55930;47.412;8.790;2023-04-21T08:06:31;94058.16;;;8.22;100.00
68889;BME280;55930;47.412;8.790;2023-04-21T08:09:52;94063.44;;;8.96;100.00
68889;BME280;55930;47.412;8.790;2023-04-21T08:13:13;94056.94;;;8.76;100.00
68889;BME280;55930;47.412;8.790;2023-04-21T08:16:33;94070.28;;;8.88;100.00
68889;BME280;55930;47.412;8.790;2023-04-21T08:19:54;94082.97;;;8.98;100.00
68889;BME280;55930;47.412;8.790;2023-04-21T08:23:14;94084.66;;;8.52;100.00
68889;BME280;55930;47.412;8.790;2023-04-21T08:26:35;94069.69;;;8.63;100.00
68889;BME280;55930;47.412;8.790;2023-04-21T08:29:57;94062.94;;;9.87;100.00
68889;BME280;55930;47.412;8.790;2023-04-21T08:33:19;94061.81;;;9.33;100.00
68889;BME280;55930;47.412;8.790;2023-04-21T08:36:39;94059.38;;;8.80;100.00
68889;BME280;55930;47.412;8.790;2023-04-21T08:40:03;94054.44;;;9.43;100.00
68889;BME280;55930;47.412;8.790;2023-04-21T08:43:27;94058.25;;;9.01;100.00
68889;BME280;55930;47.412;8.790;2023-04-21T08:46:48;94059.28;;;9.24;100.00
68889;BME280;55930;47.412;8.790;2023-04-21T08:50:14;94060.13;;;10.43;100.00
68889;BME280;55930;47.412;8.790;2023-04-21T08:53:35;94045.44;;;13.92;78.87
68889;BME280;55930;47.412;8.790;2023-04-21T08:56:58;94067.69;;;13.31;74.22
68889;BME280;55930;47.412;8.790;2023-04-21T09:00:20;94057.72;;;12.15;86.39
68889;BME280;55930;47.412;8.790;2023-04-21T09:03:40;94070.09;;;12.35;82.91
68889;BME280;55930;47.412;8.790;2023-04-21T09:07:01;94068.13;;;12.30;82.23
68889;BME280;55930;47.412;8.790;2023-04-21T09:10:22;94073.28;;;12.61;80.35
68889;BME280;55930;47.412;8.790;2023-04-21T09:13:43;94067.72;;;13.15;77.96
68889;BME280;55930;47.412;8.790;2023-04-21T09:17:04;94072.78;;;13.07;76.20
68889;BME280;55930;47.412;8.790;2023-04-21T09:20:24;94058.75;;;14.44;74.18
68889;BME280;55930;47.412;8.790;2023-04-21T09:23:49;94064.50;;;16.62;63.92
68889;BME280;55930;47.412;8.790;2023-04-21T09:27:10;94063.63;;;14.40;72.98
68889;BME280;55930;47.412;8.790;2023-04-21T09:30:34;94055.75;;;14.12;72.74
68889;BME280;55930;47.412;8.790;2023-04-21T09:33:56;94070.59;;;14.02;76.22
68889;BME280;55930;47.412;8.790;2023-04-21T09:37:17;94055.63;;;13.83;77.86
68889;BME280;55930;47.412;8.790;2023-04-21T09:40:37;94066.09;;;15.28;71.73
68889;BME280;55930;47.412;8.790;2023-04-21T09:43:58;94074.09;;;15.52;67.45
68889;BME280;55930;47.412;8.790;2023-04-21T09:47:27;94072.06;;;13.18;81.60
68889;BME280;55930;47.412;8.790;2023-04-21T09:50:48;94058.94;;;13.36;76.43
68889;BME280;55930;47.412;8.790;2023-04-21T09:54:15;94055.91;;;14.26;76.15
68889;BME280;55930;47.412;8.790;2023-04-21T09:57:38;94054.25;;;15.91;71.57
68889;BME280;55930;47.412;8.790;2023-04-21T10:01:00;94049.16;;;13.67;76.50
68889;BME280;55930;47.412;8.790;2023-04-21T10:04:23;94054.19;;;13.82;78.19
68889;BME280;55930;47.412;8.790;2023-04-21T10:07:48;94054.91;;;13.88;77.39
68889;BME280;55930;47.412;8.790;2023-04-21T10:11:10;94060.38;;;13.49;78.99
68889;BME280;55930;47.412;8.790;2023-04-21T10:14:31;94047.53;;;13.53;79.59
68889;BME280;55930;47.412;8.790;2023-04-21T10:18:27;94061.41;;;12.84;83.55
68889;BME280;55930;47.412;8.790;2023-04-21T10:21:49;94054.94;;;13.76;81.21
68889;BME280;55930;47.412;8.790;2023-04-21T10:25:09;94057.78;;;12.82;82.85
68889;BME280;55930;47.412;8.790;2023-04-21T10:28:55;94059.13;;;13.61;82.83
68889;BME280;55930;47.412;8.790;2023-04-21T10:32:31;94055.28;;;13.56;80.26
68889;BME280;55930;47.412;8.790;2023-04-21T10:36:01;94049.59;;;13.82;81.00
68889;BME280;55930;47.412;8.790;2023-04-21T10:39:45;94050.06;;;13.86;77.31
68889;BME280;55930;47.412;8.790;2023-04-21T10:43:43;94032.22;;;15.36;75.99
68889;BME280;55930;47.412;8.790;2023-04-21T10:47:06;94028.19;;;16.48;67.57
68889;BME280;55930;47.412;8.790;2023-04-21T10:50:28;94038.34;;;16.36;66.89
68889;BME280;55930;47.412;8.790;2023-04-21T10:53:49;94035.53;;;16.60;67.00
68889;BME280;55930;47.412;8.790;2023-04-21T10:57:13;94041.47;;;17.17;63.41
68889;BME280;55930;47.412;8.790;2023-04-21T11:00:35;94035.22;;;18.82;57.91
68889;BME280;55930;47.412;8.790;2023-04-21T11:03:59;94024.94;;;21.97;51.52
68889;BME280;55930;47.412;8.790;2023-04-21T11:07:21;94002.56;;;23.19;44.96
68889;BME280;55930;47.412;8.790;2023-04-21T11:14:07;94014.78;;;23.27;43.04
68889;BME280;55930;47.412;8.790;2023-04-21T11:17:28;94017.59;;;23.12;47.16
68889;BME280;55930;47.412;8.790;2023-04-21T11:20:48;94017.50;;;23.79;44.10
68889;BME280;55930;47.412;8.790;2023-04-21T11:24:08;94017.66;;;24.33;41.90
68889;BME280;55930;47.412;8.790;2023-04-21T11:27:29;94001.47;;;24.89;41.58
68889;BME280;55930;47.412;8.790;2023-04-21T11:30:50;93996.47;;;26.78;37.60
68889;BME280;55930;47.412;8.790;2023-04-21T11:34:11;93995.69;;;25.02;39.34
68889;BME280;55930;47.412;8.790;2023-04-21T11:37:31;93996.50;;;25.79;39.38
68889;BME280;55930;47.412;8.790;2023-04-21T11:40:51;93996.50;;;25.79;38.70
68889;BME280;55930;47.412;8.790;2023-04-21T11:44:28;94003.53;;;22.89;44.60
68889;BME280;55930;47.412;8.790;2023-04-21T11:47:49;94002.06;;;21.13;49.18
68889;BME280;55930;47.412;8.790;2023-04-21T11:51:16;94006.53;;;20.57;51.63
68889;BME280;55930;47.412;8.790;2023-04-21T11:54:38;94009.75;;;21.54;49.10
68889;BME280;55930;47.412;8.790;2023-04-21T11:57:58;94004.59;;;19.06;56.40
68889;BME280;55930;47.412;8.790;2023-04-21T12:01:19;94010.50;;;19.33;58.05
68889;BME280;55930;47.412;8.790;2023-04-21T12:04:40;94016.19;;;17.91;62.96
68889;BME280;55930;47.412;8.790;2023-04-21T12:08:01;94015.81;;;17.48;64.10
68889;BME280;55930;47.412;8.790;2023-04-21T12:11:25;94008.56;;;17.56;64.55
68889;BME280;55930;47.412;8.790;2023-04-21T12:14:48;94028.00;;;17.62;63.95
68889;BME280;55930;47.412;8.790;2023-04-21T12:18:12;94029.91;;;17.09;64.64
68889;BME280;55930;47.412;8.790;2023-04-21T12:21:36;94041.47;;;17.17;65.13
68889;BME280;55930;47.412;8.790;2023-04-21T12:24:58;94040.91;;;17.77;62.86
68889;BME280;55930;47.412;8.790;2023-04-21T12:28:18;94045.72;;;18.72;59.86
68889;BME280;55930;47.412;8.790;2023-04-21T12:31:38;94055.19;;;20.44;53.29
68889;BME280;55930;47.412;8.790;2023-04-21T12:34:59;94068.94;;;19.32;59.25
68889;BME280;55930;47.412;8.790;2023-04-21T12:38:20;94063.28;;;18.73;57.05
68889;BME280;55930;47.412;8.790;2023-04-21T12:41:44;94066.25;;;19.89;55.08
68889;BME280;55930;47.412;8.790;2023-04-21T12:45:05;94074.06;;;18.60;56.23
68889;BME280;55930;47.412;8.790;2023-04-21T12:48:25;94086.59;;;18.11;59.90
68889;BME280;55930;47.412;8.790;2023-04-21T12:51:48;94083.56;;;16.90;63.00
68889;BME280;55930;47.412;8.790;2023-04-21T12:55:11;94076.16;;;16.08;67.57
68889;BME280;55930;47.412;8.790;2023-04-21T12:58:32;94071.28;;;15.69;69.35
68889;BME280;55930;47.412;8.790;2023-04-21T13:01:53;94069.53;;;15.23;68.44
68889;BME280;55930;47.412;8.790;2023-04-21T13:05:14;94061.44;;;14.74;69.84
68889;BME280;55930;47.412;8.790;2023-04-21T13:08:34;94048.59;;;14.73;70.82
68889;BME280;55930;47.412;8.790;2023-04-21T13:11:55;94043.97;;;15.03;69.01
68889;BME280;55930;47.412;8.790;2023-04-21T13:15:16;94049.25;;;15.09;71.10
68889;BME280;55930;47.412;8.790;2023-04-21T13:18:36;94039.41;;;15.71;68.56
68889;BME280;55930;47.412;8.790;2023-04-21T13:21:58;94043.53;;;18.03;60.25
68889;BME280;55930;47.412;8.790;2023-04-21T13:25:18;94034.06;;;21.09;51.92
68889;BME280;55930;47.412;8.790;2023-04-21T13:28:39;94045.81;;;22.04;50.26
68889;BME280;55930;47.412;8.790;2023-04-21T13:32:03;94053.66;;;18.99;54.48
68889;BME280;55930;47.412;8.790;2023-04-21T13:35:24;94040.72;;;20.18;50.69
68889;BME280;55930;47.412;8.790;2023-04-21T13:38:45;94050.19;;;20.48;51.36
68889;BME280;55930;47.412;8.790;2023-04-21T13:42:07;94060.84;;;20.91;50.92
68889;BME280;55930;47.412;8.790;2023-04-21T13:45:27;94070.38;;;18.50;55.86
68889;BME280;55930;47.412;8.790;2023-04-21T13:48:48;94064.75;;;18.27;57.08
68889;BME280;55930;47.412;8.790;2023-04-21T13:52:10;94073.97;;;18.53;56.77
68889;BME280;55930;47.412;8.790;2023-04-21T13:55:31;94068.00;;;17.60;61.26
68889;BME280;55930;47.412;8.790;2023-04-21T13:58:51;94072.94;;;18.09;57.99
68889;BME280;55930;47.412;8.790;2023-04-21T14:02:12;94074.22;;;17.10;61.48
68889;BME280;55930;47.412;8.790;2023-04-21T14:05:32;94060.63;;;15.88;65.07
68889;BME280;55930;47.412;8.790;2023-04-21T14:08:54;94058.06;;;15.52;67.57
68889;BME280;55930;47.412;8.790;2023-04-21T14:12:14;94052.09;;;16.77;64.49
68889;BME280;55930;47.412;8.790;2023-04-21T14:15:35;94031.16;;;18.00;57.56
68889;BME280;55930;47.412;8.790;2023-04-21T14:18:55;94015.03;;;20.10;52.47
68889;BME280;55930;47.412;8.790;2023-04-21T14:22:16;94006.16;;;22.07;46.71
68889;BME280;55930;47.412;8.790;2023-04-21T14:25:36;93987.66;;;20.42;50.69
68889;BME280;55930;47.412;8.790;2023-04-21T14:28:56;93987.88;;;20.00;53.43
68889;BME280;55930;47.412;8.790;2023-04-21T14:32:19;93993.78;;;21.11;50.56
68889;BME280;55930;47.412;8.790;2023-04-21T14:35:39;93982.81;;;19.89;51.47
68889;BME280;55930;47.412;8.790;2023-04-21T14:39:01;93986.72;;;19.16;53.83
68889;BME280;55930;47.412;8.790;2023-04-21T14:42:21;94002.28;;;17.27;60.96
68889;BME280;55930;47.412;8.790;2023-04-21T14:45:41;93999.28;;;16.91;63.50
68889;BME280;55930;47.412;8.790;2023-04-21T14:49:03;93997.47;;;17.39;62.08
68889;BME280;55930;47.412;8.790;2023-04-21T14:52:23;93995.31;;;16.66;63.09
68889;BME280;55930;47.412;8.790;2023-04-21T14:55:44;94004.22;;;17.00;63.35
68889;BME280;55930;47.412;8.790;2023-04-21T14:59:05;93996.59;;;17.57;62.52
68889;BME280;55930;47.412;8.790;2023-04-21T15:02:26;94004.34;;;17.34;63.91
68889;BME280;55930;47.412;8.790;2023-04-21T15:05:47;94015.50;;;17.38;64.15
68889;BME280;55930;47.412;8.790;2023-04-21T15:09:07;94006.44;;;18.69;59.33
68889;BME280;55930;47.412;8.790;2023-04-21T15:12:30;93997.44;;;18.25;59.33
68889;BME280;55930;47.412;8.790;2023-04-21T15:15:53;94001.81;;;18.36;59.06
68889;BME280;55930;47.412;8.790;2023-04-21T15:19:13;94008.47;;;17.35;62.66
68889;BME280;55930;47.412;8.790;2023-04-21T15:22:33;94012.72;;;16.72;65.46
68889;BME280;55930;47.412;8.790;2023-04-21T15:25:54;94010.84;;;16.35;65.15
68889;BME280;55930;47.412;8.790;2023-04-21T15:29:17;94006.53;;;15.76;67.31
68889;BME280;55930;47.412;8.790;2023-04-21T15:32:38;94009.13;;;15.82;70.12
68889;BME280;55930;47.412;8.790;2023-04-21T15:35:58;94002.47;;;16.07;67.99
68889;BME280;55930;47.412;8.790;2023-04-21T15:39:18;94003.41;;;15.29;70.20
68889;BME280;55930;47.412;8.790;2023-04-21T15:42:39;93999.28;;;15.04;71.91
68889;BME280;55930;47.412;8.790;2023-04-21T15:46:02;93992.31;;;14.95;71.82
68889;BME280;55930;47.412;8.790;2023-04-21T15:49:23;93993.91;;;14.79;71.96
68889;BME280;55930;47.412;8.790;2023-04-21T15:52:48;93991.88;;;14.61;71.73
68889;BME280;55930;47.412;8.790;2023-04-21T15:56:09;93990.28;;;14.52;73.46
68889;BME280;55930;47.412;8.790;2023-04-21T15:59:31;93991.41;;;14.22;73.69
68889;BME280;55930;47.412;8.790;2023-04-21T16:02:51;93994.00;;;13.97;75.87
68889;BME280;55930;47.412;8.790;2023-04-21T16:06:11;94002.19;;;14.10;76.68
68889;BME280;55930;47.412;8.790;2023-04-21T16:09:32;94004.13;;;14.10;76.60
68889;BME280;55930;47.412;8.790;2023-04-21T16:12:52;94012.41;;;14.01;78.22
68889;BME280;55930;47.412;8.790;2023-04-21T16:16:12;94021.25;;;13.79;81.02
68889;BME280;55930;47.412;8.790;2023-04-21T16:19:33;94026.41;;;13.60;81.03
68889;BME280;55930;47.412;8.790;2023-04-21T16:22:53;94016.53;;;13.44;81.74
68889;BME280;55930;47.412;8.790;2023-04-21T16:26:14;93995.44;;;13.52;81.59
68889;BME280;55930;47.412;8.790;2023-04-21T16:29:34;93982.81;;;13.63;82.70
68889;BME280;55930;47.412;8.790;2023-04-21T16:32:57;93999.38;;;13.39;81.25
68889;BME280;55930;47.412;8.790;2023-04-21T16:36:18;94006.66;;;13.28;84.43
68889;BME280;55930;47.412;8.790;2023-04-21T16:39:39;94003.53;;;13.01;84.33
68889;BME280;55930;47.412;8.790;2023-04-21T16:43:00;94000.66;;;12.77;85.98
68889;BME280;55930;47.412;8.790;2023-04-21T16:46:20;93989.78;;;12.86;85.67
68889;BME280;55930;47.412;8.790;2023-04-21T16:49:41;93994.66;;;12.77;87.27
68889;BME280;55930;47.412;8.790;2023-04-21T16:53:01;93993.19;;;12.70;87.26
68889;BME280;55930;47.412;8.790;2023-04-21T16:56:24;93990.53;;;12.53;88.01
68889;BME280;55930;47.412;8.790;2023-04-21T16:59:44;93985.94;;;12.32;89.20
68889;BME280;55930;47.412;8.790;2023-04-21T17:03:05;93993.19;;;12.42;88.16
68889;BME280;55930;47.412;8.790;2023-04-21T17:06:26;93985.44;;;12.22;89.08
68889;BME280;55930;47.412;8.790;2023-04-21T17:09:46;93986.91;;;12.34;95.49
68889;BME280;55930;47.412;8.790;2023-04-21T17:13:09;93979.84;;;11.98;99.43
68889;BME280;55930;47.412;8.790;2023-04-21T17:16:29;93983.94;;;11.76;100.00
68889;BME280;55930;47.412;8.790;2023-04-21T17:19:51;93981.78;;;11.92;100.00
68889;BME280;55930;47.412;8.790;2023-04-21T17:23:12;93978.81;;;11.73;100.00
68889;BME280;55930;47.412;8.790;2023-04-21T17:26:32;93974.94;;;11.68;100.00
68889;BME280;55930;47.412;8.790;2023-04-21T17:29:52;93969.34;;;11.55;100.00
68889;BME280;55930;47.412;8.790;2023-04-21T17:33:13;93971.22;;;11.32;100.00
68889;BME280;55930;47.412;8.790;2023-04-21T17:36:33;93975.19;;;11.11;100.00
68889;BME280;55930;47.412;8.790;2023-04-21T17:39:54;93970.84;;;11.08;100.00
68889;BME280;55930;47.412;8.790;2023-04-21T17:43:15;93977.75;;;10.94;100.00
68889;BME280;55930;47.412;8.790;2023-04-21T17:46:35;93972.97;;;10.98;100.00
68889;BME280;55930;47.412;8.790;2023-04-21T17:49:56;93980.91;;;10.93;100.00